sensor_id;sensor_type;location;lat;lon;timestamp;temperature;humidity
53904;DHT22;39812;52.430;16.936;2023-05-20T00:01:37;11.80;99.90
53904;DHT22;39812;52.430;16.936;2023-05-20T00:04:02;11.70;99.90
53904;DHT22;39812;52.430;16.936;2023-05-20T00:06:28;11.80;99.90
53904;DHT22;39812;52.430;16.936;2023-05-20T00:08:54;11.70;99.90
53904;DHT22;39812;52.430;16.936;2023-05-20T00:11:20;11.80;99.90
53904;DHT22;39812;52.430;16.936;2023-05-20T00:13:46;11.80;99.90
53904;DHT22;39812;52.430;16.936;2023-05-20T00:16:11;11.70;99.90
53904;DHT22;39812;52.430;16.936;2023-05-20T00:18:37;11.70;99.90
53904;DHT22;39812;52.430;16.936;2023-05-20T00:21:03;11.70;99.90
53904;DHT22;39812;52.430;16.936;2023-05-20T00:23:28;11.70;99.90
53904;DHT22;39812;52.430;16.936;2023-05-20T00:25:54;11.70;99.90
53904;DHT22;39812;52.430;16.936;2023-05-20T00:28:19;11.70;99.90
53904;DHT22;39812;52.430;16.936;2023-05-20T00:30:47;11.70;99.90
53904;DHT22;39812;52.430;16.936;2023-05-20T00:33:13;11.60;99.90
53904;DHT22;39812;52.430;16.936;2023-05-20T00:35:38;11.70;99.90
53904;DHT22;39812;52.430;16.936;2023-05-20T00:38:04;11.70;99.90
53904;DHT22;39812;52.430;16.936;2023-05-20T00:40:30;11.70;99.90
53904;DHT22;39812;52.430;16.936;2023-05-20T00:42:55;11.70;99.90
53904;DHT22;39812;52.430;16.936;2023-05-20T00:45:21;11.70;99.90
53904;DHT22;39812;52.430;16.936;2023-05-20T00:47:47;11.60;99.90
53904;DHT22;39812;52.430;16.936;2023-05-20T00:50:13;11.70;99.90
53904;DHT22;39812;52.430;16.936;2023-05-20T00:52:39;11.70;99.90
53904;DHT22;39812;52.430;16.936;2023-05-20T00:55:08;11.60;99.90
53904;DHT22;39812;52.430;16.936;2023-05-20T00:57:34;11.60;99.90
53904;DHT22;39812;52.430;16.936;2023-05-20T00:59:59;11.60;99.90
53904;DHT22;39812;52.430;16.936;2023-05-20T01:02:25;11.60;99.90
53904;DHT22;39812;52.430;16.936;2023-05-20T01:04:51;11.60;99.90
53904;DHT22;39812;52.430;16.936;2023-05-20T01:07:18;11.60;99.90
53904;DHT22;39812;52.430;16.936;2023-05-20T01:09:44;11.60;99.90
53904;DHT22;39812;52.430;16.936;2023-05-20T01:12:19;11.60;99.90
53904;DHT22;39812;52.430;16.936;2023-05-20T01:14:55;11.70;99.90
53904;DHT22;39812;52.430;16.936;2023-05-20T01:17:25;11.70;99.90
53904;DHT22;39812;52.430;16.936;2023-05-20T01:19:53;11.70;99.90
53904;DHT22;39812;52.430;16.936;2023-05-20T01:22:27;11.70;99.90
53904;DHT22;39812;52.430;16.936;2023-05-20T01:24:52;11.70;99.90
53904;DHT22;39812;52.430;16.936;2023-05-20T01:27:19;11.70;99.90
53904;DHT22;39812;52.430;16.936;2023-05-20T01:29:50;11.70;99.90
53904;DHT22;39812;52.430;16.936;2023-05-20T01:34:48;11.70;99.90
53904;DHT22;39812;52.430;16.936;2023-05-20T01:37:14;11.70;99.90
53904;DHT22;39812;52.430;16.936;2023-05-20T01:39:41;11.70;99.90
53904;DHT22;39812;52.430;16.936;2023-05-20T01:42:10;11.80;99.90
53904;DHT22;39812;52.430;16.936;2023-05-20T01:44:36;11.80;99.90
53904;DHT22;39812;52.430;16.936;2023-05-20T01:47:02;11.70;99.90
53904;DHT22;39812;52.430;16.936;2023-05-20T01:49:28;11.70;99.90
53904;DHT22;39812;52.430;16.936;2023-05-20T01:51:54;11.70;99.90
53904;DHT22;39812;52.430;16.936;2023-05-20T01:54:20;11.70;99.90
53904;DHT22;39812;52.430;16.936;2023-05-20T01:56:46;11.70;99.90
53904;DHT22;39812;52.430;16.936;2023-05-20T01:59:12;11.80;99.90
53904;DHT22;39812;52.430;16.936;2023-05-20T02:01:37;11.80;99.90
53904;DHT22;39812;52.430;16.936;2023-05-20T02:04:03;11.80;99.90
53904;DHT22;39812;52.430;16.936;2023-05-20T02:06:29;11.80;99.90
53904;DHT22;39812;52.430;16.936;2023-05-20T02:08:54;11.80;99.90
53904;DHT22;39812;52.430;16.936;2023-05-20T02:11:20;11.80;99.90
53904;DHT22;39812;52.430;16.936;2023-05-20T02:13:46;11.80;99.90
53904;DHT22;39812;52.430;16.936;2023-05-20T02:16:12;11.80;99.90
53904;DHT22;39812;52.430;16.936;2023-05-20T02:18:38;11.70;99.90
53904;DHT22;39812;52.430;16.936;2023-05-20T02:21:04;11.80;99.90
53904;DHT22;39812;52.430;16.936;2023-05-20T02:23:30;11.70;99.90
53904;DHT22;39812;52.430;16.936;2023-05-20T02:25:56;11.70;99.90
53904;DHT22;39812;52.430;16.936;2023-05-20T02:28:22;11.70;99.90
53904;DHT22;39812;52.430;16.936;2023-05-20T02:30:47;11.80;99.90
53904;DHT22;39812;52.430;16.936;2023-05-20T02:33:15;11.70;99.90
53904;DHT22;39812;52.430;16.936;2023-05-20T02:35:41;11.70;99.90
53904;DHT22;39812;52.430;16.936;2023-05-20T02:38:06;11.70;99.90
53904;DHT22;39812;52.430;16.936;2023-05-20T02:40:32;11.70;99.90
53904;DHT22;39812;52.430;16.936;2023-05-20T02:42:59;11.80;99.90
53904;DHT22;39812;52.430;16.936;2023-05-20T02:45:25;11.80;99.90
53904;DHT22;39812;52.430;16.936;2023-05-20T02:47:50;11.70;99.90
53904;DHT22;39812;52.430;16.936;2023-05-20T02:50:16;11.70;99.90
53904;DHT22;39812;52.430;16.936;2023-05-20T02:52:41;11.80;99.90
53904;DHT22;39812;52.430;16.936;2023-05-20T02:55:08;11.80;99.90
53904;DHT22;39812;52.430;16.936;2023-05-20T02:57:34;11.80;99.90
53904;DHT22;39812;52.430;16.936;2023-05-20T03:00:06;11.70;99.90
53904;DHT22;39812;52.430;16.936;2023-05-20T03:02:35;11.70;99.90
53904;DHT22;39812;52.430;16.936;2023-05-20T03:05:01;11.80;99.90
53904;DHT22;39812;52.430;16.936;2023-05-20T03:07:27;11.80;99.90
53904;DHT22;39812;52.430;16.936;2023-05-20T03:09:52;11.70;99.90
53904;DHT22;39812;52.430;16.936;2023-05-20T03:12:18;11.90;99.90
53904;DHT22;39812;52.430;16.936;2023-05-20T03:14:44;11.90;99.90
53904;DHT22;39812;52.430;16.936;2023-05-20T03:17:10;11.80;99.90
53904;DHT22;39812;52.430;16.936;2023-05-20T03:19:36;11.90;99.90
53904;DHT22;39812;52.430;16.936;2023-05-20T03:22:02;11.90;99.90
53904;DHT22;39812;52.430;16.936;2023-05-20T03:24:28;11.80;99.90
53904;DHT22;39812;52.430;16.936;2023-05-20T03:26:53;11.90;99.90
53904;DHT22;39812;52.430;16.936;2023-05-20T03:29:22;11.90;99.90
53904;DHT22;39812;52.430;16.936;2023-05-20T03:31:47;11.90;99.90
53904;DHT22;39812;52.430;16.936;2023-05-20T03:34:13;11.90;99.90
53904;DHT22;39812;52.430;16.936;2023-05-20T03:36:39;11.90;99.90
53904;DHT22;39812;52.430;16.936;2023-05-20T03:39:04;11.90;99.90
53904;DHT22;39812;52.430;16.936;2023-05-20T03:41:31;11.90;99.90
53904;DHT22;39812;52.430;16.936;2023-05-20T03:43:56;11.90;99.90
53904;DHT22;39812;52.430;16.936;2023-05-20T03:46:23;11.90;99.90
53904;DHT22;39812;52.430;16.936;2023-05-20T03:48:48;11.90;99.90
53904;DHT22;39812;52.430;16.936;2023-05-20T03:51:14;11.90;99.90
53904;DHT22;39812;52.430;16.936;2023-05-20T03:53:39;11.90;99.90
53904;DHT22;39812;52.430;16.936;2023-05-20T03:56:05;11.90;99.90
53904;DHT22;39812;52.430;16.936;2023-05-20T03:58:31;12.00;99.90
53904;DHT22;39812;52.430;16.936;2023-05-20T04:00:56;11.90;99.90
53904;DHT22;39812;52.430;16.936;2023-05-20T04:03:22;12.00;99.90
53904;DHT22;39812;52.430;16.936;2023-05-20T04:05:49;12.10;99.90
53904;DHT22;39812;52.430;16.936;2023-05-20T04:08:14;12.10;99.90
53904;DHT22;39812;52.430;16.936;2023-05-20T04:10:40;12.10;99.90
53904;DHT22;39812;52.430;16.936;2023-05-20T04:13:10;12.10;99.90
53904;DHT22;39812;52.430;16.936;2023-05-20T04:15:36;12.10;99.90
53904;DHT22;39812;52.430;16.936;2023-05-20T04:18:03;12.10;99.90
53904;DHT22;39812;52.430;16.936;2023-05-20T04:20:30;12.20;99.90
53904;DHT22;39812;52.430;16.936;2023-05-20T04:22:56;12.20;99.90
53904;DHT22;39812;52.430;16.936;2023-05-20T04:25:22;12.20;99.90
53904;DHT22;39812;52.430;16.936;2023-05-20T04:27:48;12.20;99.90
53904;DHT22;39812;52.430;16.936;2023-05-20T04:30:14;12.30;99.90
53904;DHT22;39812;52.430;16.936;2023-05-20T04:32:42;12.30;99.90
53904;DHT22;39812;52.430;16.936;2023-05-20T04:35:08;12.30;99.90
53904;DHT22;39812;52.430;16.936;2023-05-20T04:37:36;12.30;99.90
53904;DHT22;39812;52.430;16.936;2023-05-20T04:40:03;12.40;99.90
53904;DHT22;39812;52.430;16.936;2023-05-20T04:42:29;12.40;99.90
53904;DHT22;39812;52.430;16.936;2023-05-20T04:44:54;12.50;99.90
53904;DHT22;39812;52.430;16.936;2023-05-20T04:47:20;12.60;99.90
53904;DHT22;39812;52.430;16.936;2023-05-20T04:49:45;12.60;99.90
53904;DHT22;39812;52.430;16.936;2023-05-20T04:52:12;12.70;99.90
53904;DHT22;39812;52.430;16.936;2023-05-20T04:54:37;12.70;99.90
53904;DHT22;39812;52.430;16.936;2023-05-20T04:57:04;12.70;99.90
53904;DHT22;39812;52.430;16.936;2023-05-20T04:59:30;12.80;99.90
53904;DHT22;39812;52.430;16.936;2023-05-20T05:01:56;12.80;99.90
53904;DHT22;39812;52.430;16.936;2023-05-20T05:04:21;12.90;99.90
53904;DHT22;39812;52.430;16.936;2023-05-20T05:06:48;12.90;99.90
53904;DHT22;39812;52.430;16.936;2023-05-20T05:09:13;12.90;99.90
53904;DHT22;39812;52.430;16.936;2023-05-20T05:11:40;13.00;99.90
53904;DHT22;39812;52.430;16.936;2023-05-20T05:14:05;13.00;99.90
53904;DHT22;39812;52.430;16.936;2023-05-20T05:16:31;13.00;99.90
53904;DHT22;39812;52.430;16.936;2023-05-20T05:18:56;13.10;99.90
53904;DHT22;39812;52.430;16.936;2023-05-20T05:21:22;13.20;99.90
53904;DHT22;39812;52.430;16.936;2023-05-20T05:23:48;13.20;99.90
53904;DHT22;39812;52.430;16.936;2023-05-20T05:26:13;13.30;99.90
53904;DHT22;39812;52.430;16.936;2023-05-20T05:28:41;13.30;99.90
53904;DHT22;39812;52.430;16.936;2023-05-20T05:31:08;13.30;99.90
53904;DHT22;39812;52.430;16.936;2023-05-20T05:33:33;13.20;99.90
53904;DHT22;39812;52.430;16.936;2023-05-20T05:35:59;13.20;99.90
53904;DHT22;39812;52.430;16.936;2023-05-20T05:38:27;13.30;99.90
53904;DHT22;39812;52.430;16.936;2023-05-20T05:40:52;13.40;99.90
53904;DHT22;39812;52.430;16.936;2023-05-20T05:43:18;13.40;99.90
53904;DHT22;39812;52.430;16.936;2023-05-20T05:45:44;13.60;99.90
53904;DHT22;39812;52.430;16.936;2023-05-20T05:48:09;13.50;99.90
53904;DHT22;39812;52.430;16.936;2023-05-20T05:50:35;13.60;99.90
53904;DHT22;39812;52.430;16.936;2023-05-20T05:53:01;13.60;99.90
53904;DHT22;39812;52.430;16.936;2023-05-20T05:55:27;13.80;99.90
53904;DHT22;39812;52.430;16.936;2023-05-20T05:57:53;13.90;99.90
53904;DHT22;39812;52.430;16.936;2023-05-20T06:00:18;14.00;99.90
53904;DHT22;39812;52.430;16.936;2023-05-20T06:02:46;14.00;99.90
53904;DHT22;39812;52.430;16.936;2023-05-20T06:05:11;14.00;99.90
53904;DHT22;39812;52.430;16.936;2023-05-20T06:07:37;14.00;99.90
53904;DHT22;39812;52.430;16.936;2023-05-20T06:10:03;14.10;99.90
53904;DHT22;39812;52.430;16.936;2023-05-20T06:12:28;14.10;99.90
53904;DHT22;39812;52.430;16.936;2023-05-20T06:14:54;14.00;99.90
53904;DHT22;39812;52.430;16.936;2023-05-20T06:17:20;14.10;99.90
53904;DHT22;39812;52.430;16.936;2023-05-20T06:19:45;14.20;99.90
53904;DHT22;39812;52.430;16.936;2023-05-20T06:22:11;14.30;99.90
53904;DHT22;39812;52.430;16.936;2023-05-20T06:24:37;14.40;99.90
53904;DHT22;39812;52.430;16.936;2023-05-20T06:27:02;14.60;99.90
53904;DHT22;39812;52.430;16.936;2023-05-20T06:29:28;14.80;99.90
53904;DHT22;39812;52.430;16.936;2023-05-20T06:31:54;14.90;99.90
53904;DHT22;39812;52.430;16.936;2023-05-20T06:34:19;15.00;99.90
53904;DHT22;39812;52.430;16.936;2023-05-20T06:36:45;15.00;99.90
53904;DHT22;39812;52.430;16.936;2023-05-20T06:39:10;15.10;99.90
53904;DHT22;39812;52.430;16.936;2023-05-20T06:41:39;15.00;99.90
53904;DHT22;39812;52.430;16.936;2023-05-20T06:44:05;15.10;99.90
53904;DHT22;39812;52.430;16.936;2023-05-20T06:46:32;15.20;99.90
53904;DHT22;39812;52.430;16.936;2023-05-20T06:48:58;15.20;99.90
53904;DHT22;39812;52.430;16.936;2023-05-20T06:51:23;15.30;99.90
53904;DHT22;39812;52.430;16.936;2023-05-20T06:53:49;15.50;99.90
53904;DHT22;39812;52.430;16.936;2023-05-20T06:56:15;15.60;99.70
53904;DHT22;39812;52.430;16.936;2023-05-20T06:58:40;15.80;99.40
53904;DHT22;39812;52.430;16.936;2023-05-20T07:01:06;16.10;99.00
53904;DHT22;39812;52.430;16.936;2023-05-20T07:03:32;16.20;98.50
53904;DHT22;39812;52.430;16.936;2023-05-20T07:05:57;16.40;98.20
53904;DHT22;39812;52.430;16.936;2023-05-20T07:08:23;16.60;97.70
53904;DHT22;39812;52.430;16.936;2023-05-20T07:10:49;16.90;97.20
53904;DHT22;39812;52.430;16.936;2023-05-20T07:13:14;17.00;96.70
53904;DHT22;39812;52.430;16.936;2023-05-20T07:15:40;17.20;96.10
53904;DHT22;39812;52.430;16.936;2023-05-20T07:18:06;17.30;95.80
53904;DHT22;39812;52.430;16.936;2023-05-20T07:20:31;17.50;95.60
53904;DHT22;39812;52.430;16.936;2023-05-20T07:22:57;17.70;95.10
53904;DHT22;39812;52.430;16.936;2023-05-20T07:25:22;17.90;94.60
53904;DHT22;39812;52.430;16.936;2023-05-20T07:27:48;17.90;94.40
53904;DHT22;39812;52.430;16.936;2023-05-20T07:30:14;18.10;94.30
53904;DHT22;39812;52.430;16.936;2023-05-20T07:32:39;18.40;93.70
53904;DHT22;39812;52.430;16.936;2023-05-20T07:35:05;18.40;93.30
53904;DHT22;39812;52.430;16.936;2023-05-20T07:37:31;18.50;93.00
53904;DHT22;39812;52.430;16.936;2023-05-20T07:39:56;18.90;92.60
53904;DHT22;39812;52.430;16.936;2023-05-20T07:42:22;19.30;92.10
53904;DHT22;39812;52.430;16.936;2023-05-20T07:44:47;19.60;91.40
53904;DHT22;39812;52.430;16.936;2023-05-20T07:47:13;19.70;90.80
53904;DHT22;39812;52.430;16.936;2023-05-20T07:49:39;19.90;90.50
53904;DHT22;39812;52.430;16.936;2023-05-20T07:52:05;20.20;89.80
53904;DHT22;39812;52.430;16.936;2023-05-20T07:54:30;20.40;88.80
53904;DHT22;39812;52.430;16.936;2023-05-20T07:56:56;20.50;88.30
53904;DHT22;39812;52.430;16.936;2023-05-20T07:59:21;21.00;87.00
53904;DHT22;39812;52.430;16.936;2023-05-20T08:01:47;21.00;85.60
53904;DHT22;39812;52.430;16.936;2023-05-20T08:04:13;20.90;85.70
53904;DHT22;39812;52.430;16.936;2023-05-20T08:06:38;21.40;84.80
53904;DHT22;39812;52.430;16.936;2023-05-20T08:09:05;21.10;84.50
53904;DHT22;39812;52.430;16.936;2023-05-20T08:11:32;21.40;83.80
53904;DHT22;39812;52.430;16.936;2023-05-20T08:13:57;21.40;83.10
53904;DHT22;39812;52.430;16.936;2023-05-20T08:16:23;21.40;83.00
53904;DHT22;39812;52.430;16.936;2023-05-20T08:18:49;21.60;82.20
53904;DHT22;39812;52.430;16.936;2023-05-20T08:21:14;21.60;82.10
53904;DHT22;39812;52.430;16.936;2023-05-20T08:23:40;21.80;81.60
53904;DHT22;39812;52.430;16.936;2023-05-20T08:26:06;21.80;81.30
53904;DHT22;39812;52.430;16.936;2023-05-20T08:28:32;22.00;81.00
53904;DHT22;39812;52.430;16.936;2023-05-20T08:31:00;22.10;80.80
53904;DHT22;39812;52.430;16.936;2023-05-20T08:33:26;22.50;79.80
53904;DHT22;39812;52.430;16.936;2023-05-20T08:35:51;22.80;79.10
53904;DHT22;39812;52.430;16.936;2023-05-20T08:38:17;23.20;78.50
53904;DHT22;39812;52.430;16.936;2023-05-20T08:40:43;23.20;77.10
53904;DHT22;39812;52.430;16.936;2023-05-20T08:43:08;22.90;77.20
53904;DHT22;39812;52.430;16.936;2023-05-20T08:45:37;22.60;78.00
53904;DHT22;39812;52.430;16.936;2023-05-20T08:48:03;22.30;78.20
53904;DHT22;39812;52.430;16.936;2023-05-20T08:50:32;22.20;78.70
53904;DHT22;39812;52.430;16.936;2023-05-20T08:52:58;22.00;79.00
53904;DHT22;39812;52.430;16.936;2023-05-20T08:55:25;21.50;80.00
53904;DHT22;39812;52.430;16.936;2023-05-20T08:57:54;21.50;80.60
53904;DHT22;39812;52.430;16.936;2023-05-20T09:00:23;21.50;80.60
53904;DHT22;39812;52.430;16.936;2023-05-20T09:02:53;21.40;80.00
53904;DHT22;39812;52.430;16.936;2023-05-20T09:05:20;21.30;80.70
53904;DHT22;39812;52.430;16.936;2023-05-20T09:07:47;20.90;82.10
53904;DHT22;39812;52.430;16.936;2023-05-20T09:10:12;20.80;82.10
53904;DHT22;39812;52.430;16.936;2023-05-20T09:12:38;21.10;82.10
53904;DHT22;39812;52.430;16.936;2023-05-20T09:15:05;22.00;80.30
53904;DHT22;39812;52.430;16.936;2023-05-20T09:17:33;22.30;79.10
53904;DHT22;39812;52.430;16.936;2023-05-20T09:19:59;22.40;77.90
53904;DHT22;39812;52.430;16.936;2023-05-20T09:22:26;22.10;78.10
53904;DHT22;39812;52.430;16.936;2023-05-20T09:24:52;21.30;79.80
53904;DHT22;39812;52.430;16.936;2023-05-20T09:27:19;21.30;80.40
53904;DHT22;39812;52.430;16.936;2023-05-20T09:29:48;21.10;80.20
53904;DHT22;39812;52.430;16.936;2023-05-20T09:32:14;20.90;81.20
53904;DHT22;39812;52.430;16.936;2023-05-20T09:34:40;20.50;82.80
53904;DHT22;39812;52.430;16.936;2023-05-20T09:37:08;20.60;82.00
53904;DHT22;39812;52.430;16.936;2023-05-20T09:39:52;20.20;83.20
53904;DHT22;39812;52.430;16.936;2023-05-20T09:42:21;20.40;83.60
53904;DHT22;39812;52.430;16.936;2023-05-20T09:44:52;20.70;82.80
53904;DHT22;39812;52.430;16.936;2023-05-20T09:47:19;20.70;82.30
53904;DHT22;39812;52.430;16.936;2023-05-20T09:49:47;20.00;84.00
53904;DHT22;39812;52.430;16.936;2023-05-20T09:52:15;19.70;85.10
53904;DHT22;39812;52.430;16.936;2023-05-20T09:54:42;19.80;85.50
53904;DHT22;39812;52.430;16.936;2023-05-20T09:57:08;19.90;85.30
53904;DHT22;39812;52.430;16.936;2023-05-20T09:59:36;19.60;85.80
53904;DHT22;39812;52.430;16.936;2023-05-20T10:02:02;19.50;86.00
53904;DHT22;39812;52.430;16.936;2023-05-20T10:04:31;19.50;86.40
53904;DHT22;39812;52.430;16.936;2023-05-20T10:15:16;20.10;85.50
53904;DHT22;39812;52.430;16.936;2023-05-20T10:20:26;20.70;83.90
53904;DHT22;39812;52.430;16.936;2023-05-20T10:22:56;20.50;83.60
53904;DHT22;39812;52.430;16.936;2023-05-20T10:25:28;20.80;83.80
53904;DHT22;39812;52.430;16.936;2023-05-20T10:28:06;21.40;82.60
53904;DHT22;39812;52.430;16.936;2023-05-20T10:30:32;22.10;81.20
53904;DHT22;39812;52.430;16.936;2023-05-20T10:33:03;21.90;80.70
53904;DHT22;39812;52.430;16.936;2023-05-20T10:35:30;22.80;79.30
53904;DHT22;39812;52.430;16.936;2023-05-20T10:38:09;23.20;77.30
53904;DHT22;39812;52.430;16.936;2023-05-20T10:40:35;23.40;76.70
53904;DHT22;39812;52.430;16.936;2023-05-20T10:43:25;23.50;76.60
53904;DHT22;39812;52.430;16.936;2023-05-20T10:45:52;23.40;76.90
53904;DHT22;39812;52.430;16.936;2023-05-20T10:48:27;23.00;77.90
53904;DHT22;39812;52.430;16.936;2023-05-20T10:50:57;23.60;76.80
53904;DHT22;39812;52.430;16.936;2023-05-20T10:53:25;23.70;75.50
53904;DHT22;39812;52.430;16.936;2023-05-20T10:55:53;23.80;75.60
53904;DHT22;39812;52.430;16.936;2023-05-20T10:58:22;23.60;75.30
53904;DHT22;39812;52.430;16.936;2023-05-20T11:00:52;23.60;75.20
53904;DHT22;39812;52.430;16.936;2023-05-20T11:03:20;23.30;75.60
53904;DHT22;39812;52.430;16.936;2023-05-20T11:05:47;23.20;76.10
53904;DHT22;39812;52.430;16.936;2023-05-20T11:08:13;23.30;76.40
53904;DHT22;39812;52.430;16.936;2023-05-20T11:10:40;23.60;75.60
53904;DHT22;39812;52.430;16.936;2023-05-20T11:13:06;24.20;74.70
53904;DHT22;39812;52.430;16.936;2023-05-20T11:15:34;23.70;74.40
53904;DHT22;39812;52.430;16.936;2023-05-20T11:18:03;24.00;74.20
53904;DHT22;39812;52.430;16.936;2023-05-20T11:20:29;24.20;73.90
53904;DHT22;39812;52.430;16.936;2023-05-20T11:22:59;24.10;73.50
53904;DHT22;39812;52.430;16.936;2023-05-20T11:25:25;24.00;74.10
53904;DHT22;39812;52.430;16.936;2023-05-20T11:27:52;24.60;73.20
53904;DHT22;39812;52.430;16.936;2023-05-20T11:30:18;25.30;72.00
53904;DHT22;39812;52.430;16.936;2023-05-20T11:33:03;25.80;70.50
53904;DHT22;39812;52.430;16.936;2023-05-20T11:35:32;26.20;70.00
53904;DHT22;39812;52.430;16.936;2023-05-20T11:38:03;26.60;69.10
53904;DHT22;39812;52.430;16.936;2023-05-20T11:40:31;27.30;67.80
53904;DHT22;39812;52.430;16.936;2023-05-20T11:43:00;28.90;66.30
53904;DHT22;39812;52.430;16.936;2023-05-20T11:45:26;30.30;62.30
53904;DHT22;39812;52.430;16.936;2023-05-20T11:47:59;31.20;61.10
53904;DHT22;39812;52.430;16.936;2023-05-20T11:50:25;32.40;59.00
53904;DHT22;39812;52.430;16.936;2023-05-20T11:53:01;31.60;58.00
53904;DHT22;39812;52.430;16.936;2023-05-20T11:55:27;31.80;57.40
53904;DHT22;39812;52.430;16.936;2023-05-20T11:57:53;31.90;57.70
53904;DHT22;39812;52.430;16.936;2023-05-20T12:00:19;31.90;57.80
53904;DHT22;39812;52.430;16.936;2023-05-20T12:02:46;34.40;55.70
53904;DHT22;39812;52.430;16.936;2023-05-20T12:05:11;34.00;53.70
53904;DHT22;39812;52.430;16.936;2023-05-20T12:07:38;35.70;53.10
53904;DHT22;39812;52.430;16.936;2023-05-20T12:10:04;37.10;50.60
53904;DHT22;39812;52.430;16.936;2023-05-20T12:12:29;36.50;49.80
53904;DHT22;39812;52.430;16.936;2023-05-20T12:14:56;37.60;49.40
53904;DHT22;39812;52.430;16.936;2023-05-20T12:17:21;38.30;48.10
53904;DHT22;39812;52.430;16.936;2023-05-20T12:19:47;37.80;47.70
53904;DHT22;39812;52.430;16.936;2023-05-20T12:22:12;37.00;47.60
53904;DHT22;39812;52.430;16.936;2023-05-20T12:24:38;36.60;48.50
53904;DHT22;39812;52.430;16.936;2023-05-20T12:27:04;35.90;48.20
53904;DHT22;39812;52.430;16.936;2023-05-20T12:29:31;38.30;48.00
53904;DHT22;39812;52.430;16.936;2023-05-20T12:31:57;38.10;46.30
53904;DHT22;39812;52.430;16.936;2023-05-20T12:34:22;38.20;46.50
53904;DHT22;39812;52.430;16.936;2023-05-20T12:36:48;38.80;45.90
53904;DHT22;39812;52.430;16.936;2023-05-20T12:39:13;40.20;44.70
53904;DHT22;39812;52.430;16.936;2023-05-20T12:41:42;41.30;43.90
53904;DHT22;39812;52.430;16.936;2023-05-20T12:44:07;41.60;42.80
53904;DHT22;39812;52.430;16.936;2023-05-20T12:46:34;42.00;43.00
53904;DHT22;39812;52.430;16.936;2023-05-20T12:49:00;42.20;42.00
53904;DHT22;39812;52.430;16.936;2023-05-20T12:51:26;43.30;41.60
53904;DHT22;39812;52.430;16.936;2023-05-20T12:53:51;42.90;41.10
53904;DHT22;39812;52.430;16.936;2023-05-20T12:56:17;42.00;41.50
53904;DHT22;39812;52.430;16.936;2023-05-20T12:58:44;41.80;42.10
53904;DHT22;39812;52.430;16.936;2023-05-20T13:01:09;41.40;41.80
53904;DHT22;39812;52.430;16.936;2023-05-20T13:03:35;40.50;42.60
53904;DHT22;39812;52.430;16.936;2023-05-20T13:06:01;38.10;43.70
53904;DHT22;39812;52.430;16.936;2023-05-20T13:08:27;38.40;44.90
53904;DHT22;39812;52.430;16.936;2023-05-20T13:10:52;39.10;44.40
53904;DHT22;39812;52.430;16.936;2023-05-20T13:13:18;40.40;43.60
53904;DHT22;39812;52.430;16.936;2023-05-20T13:15:47;41.20;42.70
53904;DHT22;39812;52.430;16.936;2023-05-20T13:18:14;40.90;41.70
53904;DHT22;39812;52.430;16.936;2023-05-20T13:20:41;41.00;42.40
53904;DHT22;39812;52.430;16.936;2023-05-20T13:23:07;43.40;40.80
53904;DHT22;39812;52.430;16.936;2023-05-20T13:25:33;43.90;40.00
53904;DHT22;39812;52.430;16.936;2023-05-20T13:27:59;42.90;39.70
53904;DHT22;39812;52.430;16.936;2023-05-20T13:30:25;41.70;40.90
53904;DHT22;39812;52.430;16.936;2023-05-20T13:32:50;43.40;39.90
53904;DHT22;39812;52.430;16.936;2023-05-20T13:35:16;43.90;40.10
53904;DHT22;39812;52.430;16.936;2023-05-20T13:37:42;44.80;39.20
53904;DHT22;39812;52.430;16.936;2023-05-20T13:40:08;46.10;38.40
53904;DHT22;39812;52.430;16.936;2023-05-20T13:42:34;45.00;38.60
53904;DHT22;39812;52.430;16.936;2023-05-20T13:44:59;44.60;38.90
53904;DHT22;39812;52.430;16.936;2023-05-20T13:47:25;44.10;39.00
53904;DHT22;39812;52.430;16.936;2023-05-20T13:49:50;44.00;39.60
53904;DHT22;39812;52.430;16.936;2023-05-20T13:52:16;44.00;39.30
53904;DHT22;39812;52.430;16.936;2023-05-20T13:54:42;41.60;39.80
53904;DHT22;39812;52.430;16.936;2023-05-20T13:57:09;42.10;41.30
53904;DHT22;39812;52.430;16.936;2023-05-20T13:59:34;43.40;40.10
53904;DHT22;39812;52.430;16.936;2023-05-20T14:02:00;44.40;39.10
53904;DHT22;39812;52.430;16.936;2023-05-20T14:04:26;44.50;38.40
53904;DHT22;39812;52.430;16.936;2023-05-20T14:06:51;45.30;38.60
53904;DHT22;39812;52.430;16.936;2023-05-20T14:09:17;44.60;38.10
53904;DHT22;39812;52.430;16.936;2023-05-20T14:11:43;44.00;38.40
53904;DHT22;39812;52.430;16.936;2023-05-20T14:14:08;44.60;38.30
53904;DHT22;39812;52.430;16.936;2023-05-20T14:16:34;44.10;38.40
53904;DHT22;39812;52.430;16.936;2023-05-20T14:19:00;44.40;38.70
53904;DHT22;39812;52.430;16.936;2023-05-20T14:21:26;44.40;38.40
53904;DHT22;39812;52.430;16.936;2023-05-20T14:23:51;46.30;37.80
53904;DHT22;39812;52.430;16.936;2023-05-20T14:26:17;45.20;37.90
53904;DHT22;39812;52.430;16.936;2023-05-20T14:28:43;45.90;37.00
53904;DHT22;39812;52.430;16.936;2023-05-20T14:31:09;45.50;37.20
53904;DHT22;39812;52.430;16.936;2023-05-20T14:33:35;46.00;36.30
53904;DHT22;39812;52.430;16.936;2023-05-20T14:36:01;43.60;37.60
53904;DHT22;39812;52.430;16.936;2023-05-20T14:38:27;44.00;38.60
53904;DHT22;39812;52.430;16.936;2023-05-20T14:40:53;42.80;38.60
53904;DHT22;39812;52.430;16.936;2023-05-20T14:43:18;44.60;38.30
53904;DHT22;39812;52.430;16.936;2023-05-20T14:45:44;45.40;37.70
53904;DHT22;39812;52.430;16.936;2023-05-20T14:48:11;45.90;37.30
53904;DHT22;39812;52.430;16.936;2023-05-20T14:50:36;46.60;37.00
53904;DHT22;39812;52.430;16.936;2023-05-20T14:53:02;46.20;36.90
53904;DHT22;39812;52.430;16.936;2023-05-20T14:55:28;47.00;36.80
53904;DHT22;39812;52.430;16.936;2023-05-20T14:57:53;46.40;36.50
53904;DHT22;39812;52.430;16.936;2023-05-20T15:00:19;46.10;36.60
53904;DHT22;39812;52.430;16.936;2023-05-20T15:02:45;46.30;36.90
53904;DHT22;39812;52.430;16.936;2023-05-20T15:05:10;46.90;36.90
53904;DHT22;39812;52.430;16.936;2023-05-20T15:07:36;46.80;36.40
53904;DHT22;39812;52.430;16.936;2023-05-20T15:10:02;45.10;36.40
53904;DHT22;39812;52.430;16.936;2023-05-20T15:12:28;41.70;38.30
53904;DHT22;39812;52.430;16.936;2023-05-20T15:14:54;41.10;40.40
53904;DHT22;39812;52.430;16.936;2023-05-20T15:17:19;41.60;40.40
53904;DHT22;39812;52.430;16.936;2023-05-20T15:19:45;40.60;40.70
53904;DHT22;39812;52.430;16.936;2023-05-20T15:22:11;39.20;42.20
53904;DHT22;39812;52.430;16.936;2023-05-20T15:24:37;41.20;41.40